^^
Paulen-Weather Station Historical Data
Daily Summary for July 17, 2022 Units:  Metric    English   Both
Daily Weekly Monthly Yearly Custom
  High: Low: Average:
Temperature: 18 °C 14 °C 15.7 °C
Dew Point: 15 °C 7 °C 10.5 °C
Humidity: 91% 59% 72%
Wind Speed: 28km/h 3km/h 12.6km/h
Wind Gust: 22km/h - -
Wind- - WSW
Pressure: 1021.47 hPa 1018.32 hPa -
Precipitation: 0 mm    
Historical Graphs
 
 
Tabular Data for July 17, 2022
Time Temperature Dew Point Pressure Wind Wind Speed Wind Gust Humidity Rainfall Rate (Hourly) solar
00:04 16 °C 8 °C 1018.52 hPa WNW 10 km/h 9 km/h 60% 0 mm 0 W/m2
00:09 16 °C 8 °C 1018.63 hPa WNW 9 km/h 10 km/h 60% 0 mm 0 W/m2
00:14 16 °C 8 °C 1018.69 hPa WNW 10 km/h 10 km/h 60% 0 mm 0 W/m2
00:19 16 °C 8 °C 1018.73 hPa WNW 8 km/h 8 km/h 60% 0 mm 0 W/m2
00:24 16 °C 8 °C 1018.69 hPa WNW 5 km/h 4 km/h 60% 0 mm 0 W/m2
00:29 15 °C 8 °C 1018.73 hPa WNW 5 km/h 6 km/h 60% 0 mm 0 W/m2
00:34 15 °C 8 °C 1018.69 hPa NW 6 km/h 6 km/h 60% 0 mm 0 W/m2
00:39 15 °C 8 °C 1018.69 hPa NW 7 km/h 8 km/h 61% 0 mm 0 W/m2
00:44 15 °C 8 °C 1018.66 hPa NW 11 km/h 14 km/h 61% 0 mm 0 W/m2
00:49 15 °C 8 °C 1018.63 hPa NW 15 km/h 14 km/h 60% 0 mm 0 W/m2
00:54 15 °C 8 °C 1018.52 hPa NW 18 km/h 16 km/h 60% 0 mm 0 W/m2
00:59 16 °C 8 °C 1018.52 hPa NW 17 km/h 17 km/h 60% 0 mm 0 W/m2
01:04 16 °C 8 °C 1018.42 hPa NW 16 km/h 13 km/h 61% 0 mm 0 W/m2
01:09 16 °C 8 °C 1018.35 hPa NW 19 km/h 16 km/h 61% 0 mm 0 W/m2
01:14 16 °C 8 °C 1018.32 hPa NW 17 km/h 15 km/h 61% 0 mm 0 W/m2
01:19 16 °C 8 °C 1018.39 hPa NW 14 km/h 14 km/h 60% 0 mm 0 W/m2
01:24 16 °C 8 °C 1018.59 hPa WNW 11 km/h 13 km/h 59% 0 mm 0 W/m2
01:29 15 °C 7 °C 1018.69 hPa WNW 6 km/h 6 km/h 59% 0 mm 0 W/m2
01:34 15 °C 8 °C 1018.8 hPa W 6 km/h 4 km/h 59% 0 mm 0 W/m2
01:39 15 °C 8 °C 1018.86 hPa W 11 km/h 8 km/h 60% 0 mm 0 W/m2
01:44 15 °C 7 °C 1018.83 hPa W 11 km/h 9 km/h 60% 0 mm 0 W/m2
01:49 15 °C 8 °C 1018.93 hPa W 8 km/h 6 km/h 60% 0 mm 0 W/m2
01:54 15 °C 8 °C 1019 hPa W 10 km/h 9 km/h 60% 0 mm 0 W/m2
01:59 15 °C 7 °C 1019.03 hPa WNW 13 km/h 9 km/h 60% 0 mm 0 W/m2
02:04 15 °C 7 °C 1019.1 hPa WNW 6 km/h 5 km/h 60% 0 mm 0 W/m2
02:09 15 °C 8 °C 1019.17 hPa W 6 km/h 4 km/h 61% 0 mm 0 W/m2
02:14 15 °C 7 °C 1019.2 hPa W 5 km/h 6 km/h 61% 0 mm 0 W/m2
02:19 15 °C 7 °C 1019.2 hPa WNW 11 km/h 9 km/h 60% 0 mm 0 W/m2
02:24 15 °C 7 °C 1019.13 hPa WNW 9 km/h 8 km/h 60% 0 mm 0 W/m2
02:29 15 °C 7 °C 1019.2 hPa WNW 7 km/h 7 km/h 60% 0 mm 0 W/m2
02:34 15 °C 7 °C 1019.2 hPa W 9 km/h 7 km/h 61% 0 mm 0 W/m2
02:39 15 °C 7 °C 1019.27 hPa WSW 6 km/h 4 km/h 61% 0 mm 0 W/m2
02:44 15 °C 7 °C 1019.17 hPa WNW 8 km/h 8 km/h 61% 0 mm 0 W/m2
02:49 15 °C 7 °C 1019.13 hPa WNW 8 km/h 8 km/h 60% 0 mm 0 W/m2
02:54 15 °C 7 °C 1019.2 hPa W 9 km/h 9 km/h 61% 0 mm 0 W/m2
02:59 15 °C 7 °C 1019.24 hPa WSW 6 km/h 8 km/h 61% 0 mm 0 W/m2
03:04 15 °C 7 °C 1019.3 hPa W 5 km/h 3 km/h 61% 0 mm 0 W/m2
03:09 14 °C 7 °C 1019.3 hPa WSW 5 km/h 6 km/h 62% 0 mm 0 W/m2
03:14 14 °C 7 °C 1019.3 hPa W 6 km/h 6 km/h 62% 0 mm 0 W/m2
03:19 14 °C 7 °C 1019.34 hPa WSW 6 km/h 5 km/h 63% 0 mm 0 W/m2
03:24 14 °C 7 °C 1019.3 hPa W 5 km/h 4 km/h 63% 0 mm 0 W/m2
03:29 14 °C 7 °C 1019.27 hPa W 8 km/h 8 km/h 63% 0 mm 0 W/m2
03:34 14 °C 7 °C 1019.2 hPa W 8 km/h 7 km/h 62% 0 mm 0 W/m2
03:39 14 °C 7 °C 1019.37 hPa W 11 km/h 10 km/h 61% 0 mm 0 W/m2
03:44 14 °C 7 °C 1019.34 hPa W 8 km/h 7 km/h 60% 0 mm 0 W/m2
03:49 15 °C 7 °C 1019.44 hPa W 7 km/h 5 km/h 60% 0 mm 0 W/m2
03:54 14 °C 7 °C 1019.47 hPa WSW 7 km/h 6 km/h 61% 0 mm 0 W/m2
03:59 14 °C 7 °C 1019.51 hPa SW 4 km/h 5 km/h 61% 0 mm 0 W/m2
04:04 14 °C 7 °C 1019.51 hPa SW 9 km/h 6 km/h 62% 0 mm 0 W/m2
04:09 14 °C 7 °C 1019.47 hPa WSW 10 km/h 7 km/h 62% 0 mm 0 W/m2
04:14 14 °C 7 °C 1019.57 hPa WSW 7 km/h 5 km/h 62% 0 mm 0 W/m2
04:19 14 °C 7 °C 1019.47 hPa WSW 7 km/h 7 km/h 63% 0 mm 0 W/m2
04:24 14 °C 7 °C 1019.54 hPa W 8 km/h 5 km/h 63% 0 mm 0 W/m2
04:29 14 °C 7 °C 1019.54 hPa W 8 km/h 6 km/h 62% 0 mm 0 W/m2
04:34 14 °C 7 °C 1019.54 hPa WNW 8 km/h 7 km/h 62% 0 mm 0 W/m2
04:39 14 °C 7 °C 1019.47 hPa W 8 km/h 9 km/h 62% 0 mm 0 W/m2
04:44 14 °C 7 °C 1019.51 hPa W 10 km/h 8 km/h 61% 0 mm 0 W/m2
04:49 14 °C 7 °C 1019.61 hPa W 9 km/h 8 km/h 61% 0 mm 0 W/m2
04:54 14 °C 7 °C 1019.57 hPa W 8 km/h 7 km/h 61% 0 mm 0 W/m2
04:59 14 °C 7 °C 1019.54 hPa W 6 km/h 4 km/h 62% 0 mm 0 W/m2
05:04 14 °C 7 °C 1019.54 hPa WNW 8 km/h 7 km/h 61% 0 mm 5 W/m2
05:09 14 °C 7 °C 1019.57 hPa NW 6 km/h 5 km/h 61% 0 mm 5 W/m2
05:14 14 °C 7 °C 1019.57 hPa W 5 km/h 6 km/h 61% 0 mm 7 W/m2
05:19 14 °C 7 °C 1019.57 hPa W 7 km/h 5 km/h 61% 0 mm 12 W/m2
05:24 14 °C 7 °C 1019.54 hPa WSW 5 km/h 3 km/h 61% 0 mm 18 W/m2
05:29 14 °C 7 °C 1019.64 hPa WNW 6 km/h 6 km/h 61% 0 mm 19 W/m2
05:34 14 °C 7 °C 1019.61 hPa WSW 4 km/h 6 km/h 61% 0 mm 25 W/m2
05:39 14 °C 7 °C 1019.71 hPa WNW 6 km/h 6 km/h 61% 0 mm 32 W/m2
05:44 14 °C 7 °C 1019.74 hPa W 3 km/h 2 km/h 61% 0 mm 39 W/m2
05:49 14 °C 7 °C 1019.74 hPa W 5 km/h 4 km/h 61% 0 mm 49 W/m2
05:54 14 °C 7 °C 1019.78 hPa WNW 8 km/h 7 km/h 62% 0 mm 70 W/m2
05:59 14 °C 7 °C 1019.78 hPa WNW 7 km/h 5 km/h 62% 0 mm 62 W/m2
06:04 14 °C 7 °C 1019.74 hPa WNW 10 km/h 8 km/h 61% 0 mm 58 W/m2
06:09 14 °C 7 °C 1019.74 hPa WNW 8 km/h 7 km/h 61% 0 mm 65 W/m2
06:14 15 °C 7 °C 1019.71 hPa WNW 11 km/h 10 km/h 61% 0 mm 65 W/m2
06:19 15 °C 7 °C 1019.68 hPa WNW 9 km/h 8 km/h 61% 0 mm 70 W/m2
06:24 15 °C 7 °C 1019.68 hPa NW 11 km/h 8 km/h 61% 0 mm 44 W/m2
06:29 15 °C 7 °C 1019.81 hPa WNW 11 km/h 9 km/h 61% 0 mm 58 W/m2
06:34 15 °C 7 °C 1019.84 hPa NW 10 km/h 9 km/h 61% 0 mm 88 W/m2
06:39 15 °C 7 °C 1019.91 hPa WNW 15 km/h 13 km/h 60% 0 mm 100 W/m2
06:44 15 °C 7 °C 1019.88 hPa NW 15 km/h 12 km/h 60% 0 mm 121 W/m2
06:49 15 °C 7 °C 1019.84 hPa NW 17 km/h 17 km/h 60% 0 mm 125 W/m2
06:54 15 °C 7 °C 1019.95 hPa NW 20 km/h 18 km/h 60% 0 mm 98 W/m2
06:59 15 °C 7 °C 1020.05 hPa NW 18 km/h 15 km/h 60% 0 mm 86 W/m2
07:04 15 °C 7 °C 1020.05 hPa NW 13 km/h 12 km/h 60% 0 mm 90 W/m2
07:09 15 °C 7 °C 1020.08 hPa WNW 12 km/h 10 km/h 61% 0 mm 90 W/m2
07:14 15 °C 7 °C 1020.01 hPa NW 11 km/h 10 km/h 60% 0 mm 97 W/m2
07:19 15 °C 7 °C 1020.08 hPa WNW 10 km/h 8 km/h 60% 0 mm 97 W/m2
07:24 15 °C 7 °C 1020.12 hPa WNW 7 km/h 7 km/h 61% 0 mm 105 W/m2
07:29 15 °C 7 °C 1020.08 hPa WNW 9 km/h 8 km/h 60% 0 mm 134 W/m2
07:34 15 °C 8 °C 1020.05 hPa WNW 5 km/h 5 km/h 60% 0 mm 135 W/m2
07:39 15 °C 8 °C 1020.05 hPa NW 5 km/h 5 km/h 60% 0 mm 130 W/m2
07:44 15 °C 8 °C 1020.12 hPa WNW 7 km/h 7 km/h 61% 0 mm 95 W/m2
07:49 15 °C 8 °C 1020.08 hPa WNW 7 km/h 7 km/h 60% 0 mm 70 W/m2
07:54 15 °C 8 °C 1020.12 hPa WNW 8 km/h 7 km/h 61% 0 mm 63 W/m2
07:59 15 °C 8 °C 1020.15 hPa WNW 8 km/h 6 km/h 62% 0 mm 60 W/m2
08:04 15 °C 8 °C 1020.22 hPa WNW 7 km/h 7 km/h 62% 0 mm 54 W/m2
08:09 15 °C 8 °C 1020.32 hPa WNW 9 km/h 7 km/h 62% 0 mm 56 W/m2
08:14 15 °C 8 °C 1020.35 hPa WNW 8 km/h 6 km/h 63% 0 mm 60 W/m2
08:19 15 °C 8 °C 1020.42 hPa WNW 12 km/h 9 km/h 65% 0 mm 65 W/m2
08:24 15 °C 8 °C 1020.42 hPa W 12 km/h 8 km/h 66% 0 mm 70 W/m2
08:29 15 °C 8 °C 1020.42 hPa WSW 12 km/h 8 km/h 65% 0 mm 98 W/m2
08:34 15 °C 8 °C 1020.42 hPa WSW 10 km/h 8 km/h 66% 0 mm 123 W/m2
08:39 15 °C 8 °C 1020.42 hPa WNW 9 km/h 7 km/h 65% 0 mm 118 W/m2
08:44 15 °C 8 °C 1020.42 hPa W 8 km/h 6 km/h 65% 0 mm 102 W/m2
08:49 15 °C 8 °C 1020.56 hPa W 8 km/h 7 km/h 65% 0 mm 97 W/m2
08:54 15 °C 8 °C 1020.59 hPa WSW 10 km/h 7 km/h 65% 0 mm 121 W/m2
08:59 15 °C 9 °C 1020.73 hPa W 10 km/h 8 km/h 66% 0 mm 149 W/m2
09:04 15 °C 9 °C 1020.83 hPa W 10 km/h 8 km/h 67% 0 mm 176 W/m2
09:09 15 °C 9 °C 1020.86 hPa W 11 km/h 11 km/h 67% 0 mm 200 W/m2
09:14 15 °C 9 °C 1020.96 hPa W 12 km/h 7 km/h 69% 0 mm 232 W/m2
09:19 15 °C 10 °C 1021 hPa W 10 km/h 7 km/h 71% 0 mm 232 W/m2
09:24 15 °C 9 °C 1021 hPa W 14 km/h 10 km/h 70% 0 mm 193 W/m2
09:29 15 °C 9 °C 1021 hPa W 11 km/h 9 km/h 71% 0 mm 197 W/m2
09:34 15 °C 10 °C 1021.06 hPa WSW 8 km/h 7 km/h 72% 0 mm 169 W/m2
09:39 14 °C 9 °C 1021.13 hPa W 10 km/h 7 km/h 71% 0 mm 130 W/m2
09:44 14 °C 9 °C 1021.17 hPa WSW 9 km/h 8 km/h 71% 0 mm 139 W/m2
09:49 14 °C 9 °C 1021.27 hPa WSW 9 km/h 7 km/h 71% 0 mm 139 W/m2
09:54 14 °C 9 °C 1021.27 hPa WSW 11 km/h 7 km/h 70% 0 mm 107 W/m2
09:59 14 °C 9 °C 1021.2 hPa WSW 14 km/h 10 km/h 70% 0 mm 162 W/m2
10:04 14 °C 9 °C 1021.27 hPa WSW 10 km/h 6 km/h 70% 0 mm 213 W/m2
10:09 14 °C 9 °C 1021.3 hPa WSW 10 km/h 7 km/h 70% 0 mm 223 W/m2
10:14 15 °C 9 °C 1021.33 hPa SSW 8 km/h 6 km/h 70% 0 mm 243 W/m2
10:19 15 °C 9 °C 1021.37 hPa SW 13 km/h 9 km/h 69% 0 mm 332 W/m2
10:24 15 °C 9 °C 1021.4 hPa WSW 10 km/h 9 km/h 69% 0 mm 345 W/m2
10:29 15 °C 9 °C 1021.37 hPa SW 11 km/h 8 km/h 68% 0 mm 200 W/m2
10:34 15 °C 9 °C 1021.37 hPa SW 8 km/h 6 km/h 69% 0 mm 241 W/m2
10:39 15 °C 9 °C 1021.37 hPa WSW 9 km/h 9 km/h 69% 0 mm 316 W/m2
10:44 15 °C 9 °C 1021.4 hPa SW 13 km/h 7 km/h 68% 0 mm 306 W/m2
10:49 15 °C 10 °C 1021.4 hPa WNW 10 km/h 8 km/h 68% 0 mm 287 W/m2
10:54 16 °C 10 °C 1021.37 hPa SW 11 km/h 6 km/h 68% 0 mm 287 W/m2
10:59 16 °C 10 °C 1021.3 hPa WSW 16 km/h 9 km/h 68% 0 mm 308 W/m2
11:04 16 °C 10 °C 1021.27 hPa WSW 13 km/h 10 km/h 68% 0 mm 308 W/m2
11:09 16 °C 10 °C 1021.27 hPa WSW 19 km/h 11 km/h 68% 0 mm 232 W/m2
11:14 16 °C 10 °C 1021.27 hPa SSW 12 km/h 9 km/h 68% 0 mm 225 W/m2
11:19 16 °C 11 °C 1021.27 hPa SW 17 km/h 12 km/h 70% 0 mm 186 W/m2
11:24 16 °C 11 °C 1021.3 hPa SW 12 km/h 8 km/h 72% 0 mm 186 W/m2
11:29 16 °C 11 °C 1021.37 hPa SW 12 km/h 10 km/h 72% 0 mm 155 W/m2
11:34 16 °C 11 °C 1021.33 hPa SW 14 km/h 10 km/h 74% 0 mm 135 W/m2
11:39 16 °C 12 °C 1021.33 hPa SW 15 km/h 10 km/h 76% 0 mm 156 W/m2
11:44 16 °C 12 °C 1021.37 hPa SW 14 km/h 11 km/h 77% 0 mm 207 W/m2
11:49 16 °C 12 °C 1021.37 hPa SSW 13 km/h 12 km/h 78% 0 mm 281 W/m2
11:54 16 °C 12 °C 1021.37 hPa SW 15 km/h 12 km/h 78% 0 mm 339 W/m2
11:59 16 °C 12 °C 1021.33 hPa SSW 14 km/h 9 km/h 77% 0 mm 364 W/m2
12:04 16 °C 12 °C 1021.37 hPa SW 15 km/h 12 km/h 76% 0 mm 403 W/m2
12:09 17 °C 12 °C 1021.37 hPa SSW 19 km/h 12 km/h 75% 0 mm 475 W/m2
12:14 17 °C 12 °C 1021.37 hPa SSW 14 km/h 8 km/h 75% 0 mm 898 W/m2
12:19 17 °C 13 °C 1021.47 hPa SW 18 km/h 15 km/h 74% 0 mm 898 W/m2
12:24 17 °C 12 °C 1021.47 hPa SW 17 km/h 15 km/h 73% 0 mm 636 W/m2
12:29 17 °C 12 °C 1021.44 hPa SW 21 km/h 16 km/h 75% 0 mm 543 W/m2
12:34 17 °C 13 °C 1021.44 hPa SSW 16 km/h 14 km/h 76% 0 mm 411 W/m2
12:39 17 °C 12 °C 1021.33 hPa SW 23 km/h 15 km/h 76% 0 mm 446 W/m2
12:44 17 °C 13 °C 1021.37 hPa SSW 20 km/h 16 km/h 77% 0 mm 499 W/m2
12:49 17 °C 13 °C 1021.3 hPa SW 14 km/h 12 km/h 78% 0 mm 534 W/m2
12:54 17 °C 13 °C 1021.27 hPa SW 15 km/h 11 km/h 77% 0 mm 552 W/m2
12:59 17 °C 13 °C 1021.3 hPa SW 16 km/h 13 km/h 76% 0 mm 385 W/m2
13:04 17 °C 13 °C 1021.3 hPa SSW 14 km/h 10 km/h 76% 0 mm 350 W/m2
13:09 17 °C 13 °C 1021.23 hPa SSW 14 km/h 15 km/h 76% 0 mm 759 W/m2
13:14 18 °C 13 °C 1021.2 hPa SSW 14 km/h 11 km/h 75% 0 mm 863 W/m2
13:19 18 °C 14 °C 1021.17 hPa SW 16 km/h 13 km/h 74% 0 mm 786 W/m2
13:24 18 °C 14 °C 1021.1 hPa SSW 22 km/h 18 km/h 74% 0 mm 990 W/m2
13:29 18 °C 14 °C 1021.13 hPa SSW 18 km/h 16 km/h 76% 0 mm 990 W/m2
13:34 18 °C 14 °C 1021.13 hPa SW 23 km/h 16 km/h 75% 0 mm 847 W/m2
13:39 18 °C 14 °C 1021.13 hPa SSW 23 km/h 19 km/h 76% 0 mm 835 W/m2
13:44 18 °C 14 °C 1021.03 hPa SW 25 km/h 20 km/h 77% 0 mm 914 W/m2
13:49 18 °C 14 °C 1021.1 hPa SW 17 km/h 13 km/h 77% 0 mm 914 W/m2
13:54 18 °C 14 °C 1021.17 hPa SW 19 km/h 15 km/h 78% 0 mm 914 W/m2
13:59 18 °C 14 °C 1021.17 hPa SSW 13 km/h 10 km/h 78% 0 mm 492 W/m2
14:04 18 °C 14 °C 1021.13 hPa SW 14 km/h 14 km/h 77% 0 mm 531 W/m2
14:09 18 °C 14 °C 1021.13 hPa SW 10 km/h 7 km/h 78% 0 mm 531 W/m2
14:14 18 °C 14 °C 1021.13 hPa SW 13 km/h 10 km/h 77% 0 mm 469 W/m2
14:19 18 °C 14 °C 1021.1 hPa SW 22 km/h 18 km/h 78% 0 mm 499 W/m2
14:24 17 °C 14 °C 1021.13 hPa SSW 18 km/h 13 km/h 79% 0 mm 568 W/m2
14:29 17 °C 14 °C 1021.17 hPa SSW 17 km/h 15 km/h 80% 0 mm 425 W/m2
14:34 17 °C 14 °C 1021.23 hPa SW 21 km/h 16 km/h 80% 0 mm 295 W/m2
14:39 17 °C 14 °C 1021.23 hPa SW 16 km/h 12 km/h 82% 0 mm 345 W/m2
14:44 17 °C 14 °C 1021.17 hPa SSW 19 km/h 14 km/h 82% 0 mm 348 W/m2
14:49 17 °C 14 °C 1021.2 hPa SW 19 km/h 14 km/h 82% 0 mm 353 W/m2
14:54 17 °C 14 °C 1021.1 hPa SSW 19 km/h 12 km/h 83% 0 mm 464 W/m2
14:59 17 °C 14 °C 1021.1 hPa SW 17 km/h 14 km/h 83% 0 mm 464 W/m2
15:04 17 °C 14 °C 1021.06 hPa SW 19 km/h 13 km/h 83% 0 mm 680 W/m2
15:09 17 °C 14 °C 1020.96 hPa SW 16 km/h 12 km/h 82% 0 mm 694 W/m2
15:14 18 °C 14 °C 1020.93 hPa SSW 17 km/h 16 km/h 80% 0 mm 631 W/m2
15:19 18 °C 14 °C 1020.93 hPa SW 25 km/h 18 km/h 80% 0 mm 578 W/m2
15:24 17 °C 14 °C 1020.89 hPa SSW 25 km/h 17 km/h 82% 0 mm 548 W/m2
15:29 17 °C 14 °C 1020.93 hPa SSW 22 km/h 18 km/h 84% 0 mm 418 W/m2
15:34 17 °C 14 °C 1020.89 hPa SSW 23 km/h 17 km/h 85% 0 mm 355 W/m2
15:39 17 °C 14 °C 1020.86 hPa SSW 24 km/h 18 km/h 86% 0 mm 406 W/m2
15:44 17 °C 14 °C 1020.86 hPa SW 22 km/h 19 km/h 86% 0 mm 360 W/m2
15:49 17 °C 14 °C 1020.86 hPa SSW 22 km/h 19 km/h 86% 0 mm 288 W/m2
15:54 16 °C 14 °C 1020.86 hPa SW 28 km/h 19 km/h 86% 0 mm 281 W/m2
15:59 16 °C 14 °C 1020.79 hPa SW 21 km/h 17 km/h 86% 0 mm 283 W/m2
16:04 16 °C 14 °C 1020.76 hPa SW 18 km/h 15 km/h 86% 0 mm 269 W/m2
16:09 17 °C 14 °C 1020.76 hPa SSW 15 km/h 10 km/h 86% 0 mm 311 W/m2
16:14 17 °C 14 °C 1020.73 hPa SSW 14 km/h 15 km/h 86% 0 mm 318 W/m2
16:19 17 °C 14 °C 1020.69 hPa SSW 20 km/h 18 km/h 85% 0 mm 323 W/m2
16:24 17 °C 14 °C 1020.69 hPa SSW 21 km/h 17 km/h 84% 0 mm 334 W/m2
16:29 17 °C 14 °C 1020.66 hPa SSW 16 km/h 11 km/h 84% 0 mm 355 W/m2
16:34 17 °C 14 °C 1020.66 hPa SSW 14 km/h 13 km/h 83% 0 mm 448 W/m2
16:39 17 °C 14 °C 1020.56 hPa SW 18 km/h 14 km/h 82% 0 mm 427 W/m2
16:44 17 °C 14 °C 1020.52 hPa SW 20 km/h 15 km/h 81% 0 mm 452 W/m2
16:49 17 °C 14 °C 1020.52 hPa SW 17 km/h 11 km/h 81% 0 mm 452 W/m2
16:54 18 °C 14 °C 1020.56 hPa SSW 13 km/h 10 km/h 80% 0 mm 533 W/m2
16:59 18 °C 14 °C 1020.56 hPa SSW 15 km/h 12 km/h 80% 0 mm 529 W/m2
17:04 18 °C 14 °C 1020.49 hPa SSW 21 km/h 18 km/h 80% 0 mm 487 W/m2
17:09 18 °C 14 °C 1020.42 hPa SSW 18 km/h 14 km/h 80% 0 mm 359 W/m2
17:14 17 °C 14 °C 1020.42 hPa SSW 22 km/h 16 km/h 80% 0 mm 316 W/m2
17:19 17 °C 14 °C 1020.42 hPa SSW 21 km/h 17 km/h 81% 0 mm 316 W/m2
17:24 17 °C 14 °C 1020.35 hPa SSW 19 km/h 16 km/h 82% 0 mm 264 W/m2
17:29 17 °C 14 °C 1020.35 hPa SSW 23 km/h 16 km/h 83% 0 mm 209 W/m2
17:34 17 °C 14 °C 1020.35 hPa SSW 21 km/h 15 km/h 84% 0 mm 185 W/m2
17:39 17 °C 14 °C 1020.35 hPa SSW 24 km/h 18 km/h 85% 0 mm 162 W/m2
17:44 16 °C 14 °C 1020.35 hPa SSW 25 km/h 22 km/h 86% 0 mm 132 W/m2
17:49 16 °C 14 °C 1020.35 hPa SSW 14 km/h 10 km/h 87% 0 mm 111 W/m2
17:54 16 °C 14 °C 1020.32 hPa SW 20 km/h 15 km/h 87% 0 mm 144 W/m2
17:59 16 °C 14 °C 1020.29 hPa SW 20 km/h 15 km/h 87% 0 mm 142 W/m2
18:04 16 °C 14 °C 1020.29 hPa SSW 13 km/h 11 km/h 88% 0 mm 149 W/m2
18:09 16 °C 14 °C 1020.29 hPa SW 20 km/h 15 km/h 89% 0 mm 174 W/m2
18:14 16 °C 15 °C 1020.25 hPa SW 15 km/h 13 km/h 89% 0 mm 174 W/m2
18:19 16 °C 14 °C 1020.22 hPa SW 16 km/h 12 km/h 89% 0 mm 162 W/m2
18:24 16 °C 15 °C 1020.29 hPa SW 14 km/h 12 km/h 90% 0 mm 171 W/m2
18:29 16 °C 15 °C 1020.29 hPa SW 16 km/h 11 km/h 90% 0 mm 174 W/m2
18:34 16 °C 15 °C 1020.22 hPa SSW 13 km/h 11 km/h 89% 0 mm 148 W/m2
18:39 16 °C 15 °C 1020.25 hPa SW 14 km/h 11 km/h 89% 0 mm 141 W/m2
18:44 16 °C 15 °C 1020.15 hPa SW 11 km/h 10 km/h 90% 0 mm 134 W/m2
18:49 16 °C 15 °C 1020.08 hPa SSW 11 km/h 8 km/h 90% 0 mm 148 W/m2
18:54 16 °C 15 °C 1020.05 hPa SW 10 km/h 8 km/h 90% 0 mm 142 W/m2
18:59 16 °C 15 °C 1020.05 hPa WSW 12 km/h 8 km/h 90% 0 mm 130 W/m2
19:04 16 °C 15 °C 1020.01 hPa WSW 11 km/h 9 km/h 90% 0 mm 130 W/m2
19:09 16 °C 15 °C 1020.01 hPa WSW 10 km/h 9 km/h 90% 0 mm 100 W/m2
19:14 16 °C 15 °C 1019.95 hPa SW 13 km/h 10 km/h 90% 0 mm 100 W/m2
19:19 16 °C 15 °C 1019.95 hPa SW 10 km/h 8 km/h 90% 0 mm 98 W/m2
19:24 16 °C 15 °C 1019.95 hPa SW 12 km/h 8 km/h 90% 0 mm 100 W/m2
19:29 16 °C 15 °C 1019.91 hPa WSW 13 km/h 8 km/h 90% 0 mm 69 W/m2
19:34 16 °C 15 °C 1019.95 hPa WSW 9 km/h 7 km/h 90% 0 mm 47 W/m2
19:39 16 °C 15 °C 1019.88 hPa SW 10 km/h 7 km/h 91% 0 mm 51 W/m2
19:44 16 °C 15 °C 1019.88 hPa WSW 8 km/h 6 km/h 91% 0 mm 62 W/m2
19:49 16 °C 15 °C 1019.88 hPa SW 8 km/h 6 km/h 91% 0 mm 72 W/m2
19:54 16 °C 15 °C 1019.84 hPa SW 8 km/h 8 km/h 91% 0 mm 74 W/m2
19:59 16 °C 15 °C 1019.81 hPa SW 9 km/h 9 km/h 91% 0 mm 79 W/m2
20:04 16 °C 15 °C 1019.81 hPa SW 8 km/h 6 km/h 91% 0 mm 88 W/m2
20:09 16 °C 15 °C 1019.84 hPa SW 11 km/h 8 km/h 91% 0 mm 90 W/m2
20:14 16 °C 15 °C 1019.88 hPa SSW 11 km/h 7 km/h 91% 0 mm 116 W/m2
Compliments of Weather Underground - 2 mb